Aviation Digital Data Service (ADDS)

Output produced by METARs form (1140 UTC 22 September 2017)
found at http://aviationweather.gov/adds/metars/
 
KAEX 221123Z 2212/2312 VRB03KT P6SM SKC 
     TEMPO 2212/2214 3SM BR SCT003 
     FM221500 VRB05KT P6SM FEW030 
     FM230000 VRB03KT P6SM FEW250